Birmingham, Illinois
Current Conditions -  °F | °C
As of 10:15 AM on Friday 19 Dec 2014 (Local Time) from KMQB Reporting Station
Broken Clouds Broken Clouds  
Wind Chill: -2°   Ceiling: 4400
Heat Index: -2°   Visibility: 7mi
Dew Point: -5°   Wind: 3mph
Humidity: 81%   Direction: 80°E
Pressure: 30.35"   Gusts: NA
Location:  40.2814°N, 90.8526°W
Report Text: KMQB 191615Z AUTO 08003KT 7SM BKN044 M02/M05 A3035 RMK AO2 T10201049
Loading
Personal Weather Stations






























Interactive Weather Map New forecast layout! Learn more

10-Day Weather Forecast

Advertisements
Track Severe Weather on mobile